首页
METAR-TAF:

METAR-TAF

机场 :

Seldovia, 阿拉斯加州, 美国

纬度: 59-27N, 经度: 151-42W, 海拔: 9米

当前天气观测

该预报发布于1小时和23分钟前的21:53 UTC
风速5节,风向
温度 14°C
湿度 67%
气压 1010 hPa
能見度: 16.1公里
少量云层高于4900英尺
阴天层高于6000英尺

METAR: PASO 152153Z AUTO 36005KT 10SM FEW049 OVC060 14/08 A2982 RMK AO2 SLP098 T01440078 TSNO

时间: 15:16 (23:16 UTC)


TAF: 丢失

超过4000个机场的气象观测和天气预报(METAR&TAF报告)。

可查询的气象台以黄色和红色小点在地图上表示。

将鼠标移到小点上方,可查看气象台名称。

然后点击查看天气观测和预报。

如需切换地图:点击带黑十字的绿色按钮放大地图;点击带横线的绿色按钮缩小地图;或者点击绿色箭头查看邻近地区的地图。


METAR-TAF: